Dutch
Home     News     Corporate     Events & Tours     Flight ops     Crew centre      
My transavia virtual    Join us    Last logs    Who is flying    Software    Training    VRTS     
 

view flightdata
view flightplan
view OFP
view flightlog



flightdata:
pilot: Edward van Hooff
flight: TRA067
from: EHAM (Amsterdam Schiphol)
to: EHBK (Maastricht)
date: 01-09-2019
departure: 18:09z
arrival: 18:54z
duration: 0:44
aircraft: B737 (PHHSA)
distance: 124 NM
touchdown: -99 ft/m @ 135 KIAS



flightplan:
-(FPL-TRA067-IS
-B737/M-SDEHPRWXY/EHLSB1
-EHAM1815
-N0277F110 LOPIK V33 EHN P57 OSGOS
-EHBK0038 EBBR
-PBN/B1D1LO1 DOF/190901 REG/PHHSA SEL/JQDH CODE/4841A5 OPR/TRA RVR/200 RMK/TCAS)



operational flightplan (OFP):
NO LOADSHEET AVAILABLE

WEATHER BRIEFING - GENERATED 01 SEP 2019 17:09 UTC
--------------------------------------------------------------------------------

EHAM EHBK EBBR

--------------------------------------------------------------------------------
ORIGIN: EHAM (SCHIPHOL)
--------------------------------------------------------------------------------
EHAM 011655Z 28012KT 250V320 9999 FEW038 17/08 Q1017 NOSIG

EHAM 011056Z 0112/0218 28013KT 9999 SCT030 PROB40
      TEMPO 0118/0210 30015G25KT 6000 SHRA SCT025CB
      BECMG 0121/0124 24005KT
      BECMG 0206/0209 29010KT
      BECMG 0215/0218 24007KT


--------------------------------------------------------------------------------
DESTINATION: EHBK (MAASTRICHT)
--------------------------------------------------------------------------------
EHBK 011655Z AUTO 32006KT 280V360 9999 NSC 19/08 Q1017 NOSIG

EHBK 011050Z 0112/0218 28008KT 9999 SCT035


--------------------------------------------------------------------------------
ALTERNATE: EBBR (BRUSSELS)
--------------------------------------------------------------------------------
EBBR 011650Z 32009KT 300V360 CAVOK 18/08 Q1018 NOSIG

EBBR 011120Z 0112/0218 29008KT 9999 SCT040=  EDDF 011100Z 0112/0218 29010KT 9999 SCT035 PROB30
      TEMPO 0112/0115 30015G25KT BKN035
      BECMG 0119/0121 31005KT


NOTAM BRIEFING - GENERATED 01 SEP 2019 17:09 UTC
--------------------------------------------------------------------------------

EHAM EHBK EBBR

--------------------------------------------------------------------------------
GLOBAL TRANSAVIA.COM VIRTUAL NOTAMS
--------------------------------------------------------------------------------
REF:NIL PLEASE CONTACT OPERATIONS IN CASE OF STRUCTURAL FLIGHTPLAN ERRORS ON FLIGHT-OPS@TRANSAVIA-VIRTUAL.COM
VALID:UFN

REF:NIL
PLEASE CHECK ACARS EVERY 10 MINUTES WHEN FLYING WITH SOUND OFF. AN NEW ACARS MESSAGE PRODUCE A SOUND SIGNAL UNTILL ITS READ. FLOWCONTROL DON'T RECEIVE MUCH REACTION ON OUTGOING ACARS MESSAGES ACCORDING FLIGHTSTATUS.
SOURCE: SPL/HV/OCC/
END VALID: UFN

REF:NIL
PLEASE CONTACT FLOWCONTROL IN CASE OF PROBLEMS WITH ROUTINGS
SOURCE: SPL/HV/OCC/
END VALID: UFN

REF:NIL
IN CASE OF ENGINE-OUT FLY V2 OR V2 20 MAX. UNTIL ABOVE MSA.
LEVEL-OFF AT AN ALTITUDE ROUNDED OFF TO THE FIRST 1000 FT OF THE HIGHEST MSA.
E.G: MSA EHAM; 1.7 AND 2.3 LEVEL-OFF 3000 FT. AFTER LANDING MAKE A REP TO OCC ON 131.975
SOURCE:SPL/HV/OCC
END VALID:UFN



flightlog:
Pilot : Edward van Hooff
Flight: TRA067
From  : EHAM Schiphol
To    : EHBK Maastricht

[FLIGHTLOG] 1.5.4
01-09-2019 17:09:41z, logging started
01-09-2019 17:24:27z, pos report: 000 KIAS, -00 004 ft, heading 179, winds 282 @ 12 kts
01-09-2019 17:39:28z, pos report: 000 KIAS, -00 004 ft, heading 179, winds 296 @ 09 kts
01-09-2019 17:54:29z, pos report: 000 KIAS, -00 004 ft, heading 179, winds 305 @ 09 kts
01-09-2019 18:09:30z, pos report: 000 KIAS, -00 004 ft, heading 179, winds 270 @ 08 kts
01-09-2019 18:09:59z, parking brake released
01-09-2019 18:12:56z, flaps set to 13%
01-09-2019 18:13:03z, flaps set to 25%
01-09-2019 18:13:07z, flaps set to 38%
01-09-2019 18:21:17z, take-off at 159 KIAS
01-09-2019 18:21:17z, pos report: 159 KIAS, -00 001 ft, heading 237, winds 270 @ 08 kts
01-09-2019 18:21:18z, flying online @ VATSIM (TRA67A)
01-09-2019 18:21:18z, position: EHAM - Schiphol
01-09-2019 18:21:25z, retracted gear at 158 KIAS and 170 ft AGL
01-09-2019 18:23:22z, flaps set to 25%
01-09-2019 18:23:26z, flaps set to 13%
01-09-2019 18:23:49z, flaps set to 0%
01-09-2019 18:24:31z, pos report: 251 KIAS, 05 128 ft, heading 119, winds 279 @ 17 kts
01-09-2019 18:37:41z, deployed spoilers
01-09-2019 18:37:44z, retracted spoilers
01-09-2019 18:39:32z, pos report: 238 KIAS, 07 698 ft, heading 211, winds 286 @ 13 kts
01-09-2019 18:41:54z, above glideslope
01-09-2019 18:43:11z, on glideslope
01-09-2019 18:43:43z, flaps set to 13%
01-09-2019 18:44:09z, flaps set to 25%
01-09-2019 18:44:14z, flaps set to 38%
01-09-2019 18:44:15z, lowered gear at 180 KIAS and 2176 ft AGL
01-09-2019 18:44:18z, flaps set to 50%
01-09-2019 18:44:21z, flaps set to 62%
01-09-2019 18:45:03z, intercepted localizer
01-09-2019 18:45:08z, flaps set to 75%
01-09-2019 18:45:12z, flaps set to 87%
01-09-2019 18:45:16z, flaps set to 100%
01-09-2019 18:47:17z, touchdown: -99ft/m at 135 KIAS
01-09-2019 18:47:17z, pos report: 135 KIAS, 00 383 ft, heading 026, winds 333 @ 06 kts
01-09-2019 18:47:17z, flying online @ VATSIM (TRA67A)
01-09-2019 18:47:17z, position: EHBK - Maastricht
01-09-2019 18:47:24z, deployed spoilers
01-09-2019 18:48:55z, flaps set to 87%
01-09-2019 18:48:59z, flaps set to 75%
01-09-2019 18:49:03z, flaps set to 62%
01-09-2019 18:49:06z, flaps set to 50%
01-09-2019 18:49:10z, flaps set to 38%
01-09-2019 18:49:13z, flaps set to 25%
01-09-2019 18:49:17z, flaps set to 13%
01-09-2019 18:49:25z, flaps set to 0%
01-09-2019 18:52:00z, retracted spoilers
01-09-2019 18:54:34z, pos report: 006 KIAS, 00 382 ft, heading 351, winds 350 @ 06 kts
01-09-2019 18:54:03z, parking brake set
01-09-2019 18:55:26z, logging ended

©2009-2021, transavia virtual. All rights reserved. This website is only meant for simulation purposes.
This website is not owned by transavia, nor is transavia responsible for the content of this website.